This is the latest recevied weather packets stored in our database for station/object LRCK. If no packets are shown the sender has not sent any weather packets the latest 10 day(s).
| Time | Temp. | Humidity | Pressure | Rain* | Wind** | Luminosity | Snow |
|---|---|---|---|---|---|---|---|
| 1777704497 | 10° C | 54% | 1022 hPa | - | - | - | - |
| 1777703597 | 10° C | 54% | 1022 hPa | - | - | - | - |
| 1777702697 | 8.89° C | 58% | 1022 hPa | - | - | - | - |
| 1777701797 | 8.89° C | 58% | 1022 hPa | - | - | - | - |
| 1777700897 | 7.78° C | 66% | 1022 hPa | - | - | - | - |
| 1777699998 | 7.78° C | 66% | 1022 hPa | - | - | - | - |
| 1777699097 | 6.11° C | 76% | 1022 hPa | - | - | - | - |
| 1777698197 | 6.11° C | 76% | 1022 hPa | - | - | - | - |
| 1777697297 | 5° C | 81% | 1022 hPa | - | - | - | - |
| 1777696397 | 5° C | 81% | 1022 hPa | - | - | - | - |
| 1777695497 | 3.89° C | 81% | 1022 hPa | - | - | - | - |
| 1777694597 | 3.89° C | 81% | 1022 hPa | - | - | - | - |
| 1777693773 | 3.89° C | 81% | 1022 hPa | - | - | - | - |
| 1777692797 | 3.89° C | 81% | 1022 hPa | - | - | - | - |
| 1777691897 | 2.78° C | 81% | 1022 hPa | - | - | - | - |
| 1777690997 | 2.78° C | 81% | 1022 hPa | - | - | - | - |
| 1777690097 | 2.78° C | 81% | 1022 hPa | - | - | - | - |
| 1777689197 | 2.78° C | 81% | 1022 hPa | - | - | - | - |
| 1777688298 | 2.22° C | 87% | 1022 hPa | - | - | - | - |
| 1777687397 | 2.22° C | 87% | 1022 hPa | - | - | - | - |
| 1777686498 | 2.22° C | 81% | 1022 hPa | - | - | - | - |
| 1777685597 | 2.22° C | 81% | 1022 hPa | - | - | - | - |
| 1777684698 | 2.78° C | 75% | 1023 hPa | - | - | - | - |
| 1777683797 | 2.78° C | 75% | 1023 hPa | - | - | - | - |
| 1777682897 | 2.22° C | 81% | 1023 hPa | - | - | - | - |
* Rain since midnight (hover to see other rain measurements)
** Current wind speed in m/s (hover to see current wind gust speed)